createdAt,value
2017-10-10T00:00:04.171Z,0
2017-10-10T00:01:13.001Z,0
2017-10-10T00:02:21.833Z,0
2017-10-10T00:03:31.006Z,0
2017-10-10T00:04:39.841Z,0
2017-10-10T00:05:48.668Z,0
2017-10-10T00:06:57.504Z,0
2017-10-10T00:08:06.333Z,0
2017-10-10T00:09:15.166Z,0
2017-10-10T00:10:24.000Z,0
2017-10-10T00:11:32.833Z,0
2017-10-10T00:12:41.667Z,0
2017-10-10T00:13:50.494Z,0
2017-10-10T00:14:59.327Z,0
2017-10-10T00:16:08.160Z,0
2017-10-10T00:17:16.991Z,0
2017-10-10T00:18:25.825Z,0
2017-10-10T00:19:34.651Z,0
2017-10-10T00:20:43.486Z,0
2017-10-10T00:21:52.319Z,0
2017-10-10T00:23:01.153Z,0
2017-10-10T00:24:09.979Z,0
2017-10-10T00:25:18.812Z,0
2017-10-10T00:26:27.640Z,0
2017-10-10T00:27:36.476Z,0
2017-10-10T00:28:45.312Z,0
2017-10-10T00:29:54.140Z,0
2017-10-10T00:31:02.965Z,0
2017-10-10T00:32:11.796Z,0
2017-10-10T00:33:20.626Z,0
2017-10-10T00:34:29.457Z,0
2017-10-10T00:35:38.634Z,0
2017-10-10T00:36:47.465Z,0
2017-10-10T00:37:56.295Z,0
2017-10-10T00:39:05.126Z,0
2017-10-10T00:40:13.959Z,0
2017-10-10T00:41:22.791Z,0
2017-10-10T00:42:31.627Z,0
2017-10-10T00:43:40.457Z,0
2017-10-10T00:44:49.282Z,0
2017-10-10T00:45:58.119Z,0
2017-10-10T00:47:06.953Z,0
2017-10-10T00:48:15.784Z,0
2017-10-10T00:49:24.618Z,0
2017-10-10T00:50:33.446Z,0
2017-10-10T00:51:42.271Z,0
2017-10-10T00:52:51.445Z,0
2017-10-10T00:54:00.274Z,0
2017-10-10T00:55:09.107Z,0
2017-10-10T00:56:17.941Z,0
2017-10-10T00:57:26.764Z,0
2017-10-10T00:58:35.597Z,0
2017-10-10T00:59:44.433Z,0
2017-10-10T01:00:53.599Z,0
2017-10-10T01:02:02.426Z,0
2017-10-10T01:03:11.258Z,0
2017-10-10T01:04:20.088Z,0
2017-10-10T01:05:28.917Z,0
2017-10-10T01:06:37.753Z,0
2017-10-10T01:07:46.931Z,0
2017-10-10T01:08:55.756Z,0
2017-10-10T01:10:04.592Z,0
2017-10-10T01:11:13.422Z,0
2017-10-10T01:12:22.255Z,0
2017-10-10T01:13:31.083Z,0
2017-10-10T01:14:39.913Z,0
2017-10-10T01:15:48.748Z,0
2017-10-10T01:16:57.582Z,0
2017-10-10T01:18:06.409Z,0
2017-10-10T01:19:15.238Z,0
2017-10-10T01:20:24.066Z,0
2017-10-10T01:21:32.897Z,0
2017-10-10T01:22:41.730Z,0
2017-10-10T01:23:50.560Z,0
2017-10-10T01:24:59.406Z,0
2017-10-10T01:26:08.218Z,0
2017-10-10T01:27:17.048Z,0
2017-10-10T01:28:25.878Z,0
2017-10-10T01:29:34.713Z,0
2017-10-10T01:30:43.554Z,0
2017-10-10T01:31:52.378Z,0
2017-10-10T01:33:01.208Z,0
2017-10-10T01:34:10.038Z,0
2017-10-10T01:35:18.871Z,0
2017-10-10T01:36:27.717Z,0
2017-10-10T01:37:36.545Z,0
2017-10-10T01:38:45.364Z,0
2017-10-10T01:39:54.199Z,0
2017-10-10T01:41:03.028Z,0
2017-10-10T01:42:11.860Z,0
2017-10-10T01:43:20.696Z,0
2017-10-10T01:44:29.526Z,0
2017-10-10T01:45:38.365Z,0
2017-10-10T01:46:47.188Z,0
2017-10-10T01:47:56.028Z,0
2017-10-10T01:49:04.856Z,0
2017-10-10T01:50:13.686Z,0
2017-10-10T01:51:22.520Z,0
2017-10-10T01:52:31.347Z,0
2017-10-10T01:53:40.181Z,0
2017-10-10T01:54:49.006Z,0
2017-10-10T01:55:57.840Z,0
2017-10-10T01:57:06.669Z,0
2017-10-10T01:58:15.505Z,0
2017-10-10T01:59:24.332Z,0
2017-10-10T02:00:33.169Z,0
2017-10-10T02:01:42.001Z,0
2017-10-10T02:02:50.832Z,0
2017-10-10T02:03:59.660Z,0
2017-10-10T02:05:08.494Z,0
2017-10-10T02:06:17.327Z,0
2017-10-10T02:07:26.155Z,0
2017-10-10T02:08:34.985Z,0
2017-10-10T02:09:43.818Z,0
2017-10-10T02:10:52.652Z,0
2017-10-10T02:12:01.487Z,0
2017-10-10T02:13:10.316Z,0
2017-10-10T02:14:19.151Z,0
2017-10-10T02:15:27.981Z,0
2017-10-10T02:16:36.812Z,0
2017-10-10T02:17:45.646Z,0
2017-10-10T02:18:54.481Z,0
2017-10-10T02:20:03.306Z,0
2017-10-10T02:21:12.137Z,0
2017-10-10T02:22:20.970Z,0
2017-10-10T02:23:29.799Z,0
2017-10-10T02:24:38.629Z,0
2017-10-10T02:25:47.464Z,0
2017-10-10T02:26:56.299Z,0
2017-10-10T02:28:05.121Z,0
2017-10-10T02:29:13.950Z,0
2017-10-10T02:30:22.782Z,0
2017-10-10T02:31:31.966Z,0
2017-10-10T02:32:40.801Z,0
2017-10-10T02:33:49.628Z,0
2017-10-10T02:34:58.795Z,0
2017-10-10T02:36:07.629Z,0
2017-10-10T02:37:16.463Z,0
2017-10-10T02:38:25.295Z,0
2017-10-10T02:39:34.459Z,0
2017-10-10T02:40:43.287Z,0
2017-10-10T02:41:52.111Z,0
2017-10-10T02:43:00.948Z,0
2017-10-10T02:44:10.119Z,0
2017-10-10T02:45:18.950Z,0
2017-10-10T02:46:27.778Z,0
2017-10-10T02:47:36.606Z,0
2017-10-10T02:48:45.440Z,0
2017-10-10T02:49:54.611Z,0
2017-10-10T02:51:03.445Z,0
2017-10-10T02:52:12.270Z,0
2017-10-10T02:53:21.109Z,0
2017-10-10T02:54:29.937Z,0
2017-10-10T02:55:38.765Z,0
2017-10-10T02:56:47.600Z,0
2017-10-10T02:57:56.431Z,0
2017-10-10T02:59:05.258Z,0
2017-10-10T03:00:14.094Z,0
2017-10-10T03:01:22.925Z,0
2017-10-10T03:02:31.760Z,0
2017-10-10T03:03:40.587Z,0
2017-10-10T03:04:49.419Z,0
2017-10-10T03:05:58.246Z,0
2017-10-10T03:07:07.083Z,0
2017-10-10T03:08:15.910Z,0
2017-10-10T03:09:24.740Z,0
2017-10-10T03:10:33.568Z,0
2017-10-10T03:11:42.399Z,0
2017-10-10T03:12:51.232Z,0
2017-10-10T03:14:00.062Z,0
2017-10-10T03:15:08.897Z,0
2017-10-10T03:16:17.724Z,0
2017-10-10T03:17:26.556Z,0
2017-10-10T03:18:35.389Z,0
2017-10-10T03:19:44.220Z,0
2017-10-10T03:20:53.055Z,0
2017-10-10T03:22:01.880Z,0
2017-10-10T03:23:10.712Z,0
2017-10-10T03:24:19.544Z,0
2017-10-10T03:25:28.373Z,0
2017-10-10T03:26:37.548Z,0
2017-10-10T03:27:46.392Z,0
2017-10-10T03:28:55.207Z,0
2017-10-10T03:30:04.038Z,0
2017-10-10T03:31:12.876Z,0
2017-10-10T03:32:21.702Z,0
2017-10-10T03:33:30.535Z,0
2017-10-10T03:34:39.366Z,0
2017-10-10T03:35:48.189Z,0
2017-10-10T03:36:57.024Z,0
2017-10-10T03:38:05.855Z,0
2017-10-10T03:39:14.691Z,0
2017-10-10T03:40:23.518Z,0
2017-10-10T03:41:32.352Z,0
2017-10-10T03:42:41.181Z,0
2017-10-10T03:43:50.015Z,0
2017-10-10T03:44:59.189Z,0
2017-10-10T03:46:08.027Z,0
2017-10-10T03:47:16.861Z,0
2017-10-10T03:48:25.696Z,0
2017-10-10T03:49:34.530Z,0
2017-10-10T03:50:43.369Z,0
2017-10-10T03:51:52.202Z,0
2017-10-10T03:53:01.043Z,0
2017-10-10T03:54:09.875Z,0
2017-10-10T03:55:18.710Z,0
2017-10-10T03:56:27.545Z,0
2017-10-10T03:57:36.382Z,0
2017-10-10T03:58:45.216Z,0
2017-10-10T03:59:54.055Z,0
2017-10-10T04:01:02.887Z,0
2017-10-10T04:02:12.065Z,0
2017-10-10T04:03:20.900Z,0
2017-10-10T04:04:29.742Z,0
2017-10-10T04:05:38.577Z,0
2017-10-10T04:06:47.414Z,0
2017-10-10T04:07:56.245Z,0
2017-10-10T04:09:05.077Z,0
2017-10-10T04:10:13.917Z,0
2017-10-10T04:11:22.755Z,0
2017-10-10T04:12:31.589Z,0
2017-10-10T04:13:40.425Z,0
2017-10-10T04:14:49.260Z,0
2017-10-10T04:15:58.098Z,0
2017-10-10T04:17:06.931Z,0
2017-10-10T04:18:15.772Z,0
2017-10-10T04:19:24.602Z,0
2017-10-10T04:20:33.442Z,0
2017-10-10T04:21:42.273Z,0
2017-10-10T04:22:51.112Z,0
2017-10-10T04:23:59.949Z,0
2017-10-10T04:25:08.787Z,0
2017-10-10T04:26:17.616Z,0
2017-10-10T04:27:26.450Z,0
2017-10-10T04:28:35.286Z,0
2017-10-10T04:29:44.121Z,0
2017-10-10T04:30:52.963Z,0
2017-10-10T04:32:01.804Z,0
2017-10-10T04:33:10.634Z,0
2017-10-10T04:34:19.470Z,0
2017-10-10T04:35:28.308Z,0
2017-10-10T04:36:37.158Z,0
2017-10-10T04:37:45.985Z,0
2017-10-10T04:38:54.820Z,0
2017-10-10T04:40:03.994Z,0
2017-10-10T04:41:12.833Z,0
2017-10-10T04:42:21.689Z,0
2017-10-10T04:43:31.221Z,0
2017-10-10T04:44:40.051Z,0
2017-10-10T04:45:48.888Z,0
2017-10-10T04:46:57.721Z,0
2017-10-10T04:48:06.559Z,0
2017-10-10T04:49:15.396Z,0
2017-10-10T04:50:24.228Z,0
2017-10-10T04:51:33.065Z,0
2017-10-10T04:52:41.899Z,0
2017-10-10T04:53:50.737Z,0
2017-10-10T04:54:59.573Z,0
2017-10-10T04:56:08.408Z,0
2017-10-10T04:57:17.242Z,0
2017-10-10T04:58:26.080Z,0
2017-10-10T04:59:34.915Z,0
2017-10-10T05:00:43.750Z,0
2017-10-10T05:01:52.585Z,0
2017-10-10T05:03:01.421Z,0
2017-10-10T05:04:10.260Z,0
2017-10-10T05:05:19.093Z,0
2017-10-10T05:06:27.931Z,0
2017-10-10T05:07:36.778Z,0
2017-10-10T05:08:45.600Z,0
2017-10-10T05:09:54.436Z,0
2017-10-10T05:11:03.276Z,0
2017-10-10T05:12:12.112Z,0
2017-10-10T05:13:20.946Z,0
2017-10-10T05:14:29.788Z,0
2017-10-10T05:15:38.619Z,0
2017-10-10T05:16:47.450Z,0
2017-10-10T05:17:56.290Z,0
2017-10-10T05:19:05.125Z,0
2017-10-10T05:20:13.966Z,0
2017-10-10T05:21:22.849Z,0
2017-10-10T05:22:31.680Z,0
2017-10-10T05:23:40.518Z,0
2017-10-10T05:24:49.363Z,0
2017-10-10T05:25:58.540Z,0
2017-10-10T05:27:07.374Z,0
2017-10-10T05:28:16.208Z,0
2017-10-10T05:29:25.045Z,0
2017-10-10T05:30:33.887Z,0
2017-10-10T05:31:43.058Z,0
2017-10-10T05:32:51.894Z,0
2017-10-10T05:34:00.730Z,0
2017-10-10T05:35:09.567Z,0
2017-10-10T05:36:18.401Z,0
2017-10-10T05:37:27.245Z,0
2017-10-10T05:38:36.080Z,0
2017-10-10T05:39:45.248Z,0
2017-10-10T05:40:54.086Z,0
2017-10-10T05:42:02.924Z,0
2017-10-10T05:43:11.765Z,0
2017-10-10T05:44:20.932Z,0
2017-10-10T05:45:29.780Z,0
2017-10-10T05:46:38.603Z,0
2017-10-10T05:47:47.440Z,0
2017-10-10T05:48:56.273Z,0
2017-10-10T05:50:05.111Z,0
2017-10-10T05:51:13.952Z,0
2017-10-10T05:52:22.781Z,0
2017-10-10T05:53:31.618Z,0
2017-10-10T05:54:40.458Z,0
2017-10-10T05:55:49.292Z,0
2017-10-10T05:56:58.133Z,0
2017-10-10T05:58:07.302Z,0
2017-10-10T05:59:16.470Z,0
2017-10-10T06:00:25.311Z,0
2017-10-10T06:01:34.144Z,0
2017-10-10T06:02:42.977Z,0
2017-10-10T06:03:51.817Z,0
2017-10-10T06:05:00.652Z,0
2017-10-10T06:06:09.483Z,0
2017-10-10T06:07:18.320Z,0
2017-10-10T06:08:27.159Z,0
2017-10-10T06:09:35.989Z,5
2017-10-10T06:10:44.831Z,5
2017-10-10T06:11:53.658Z,5
2017-10-10T06:13:02.500Z,5
2017-10-10T06:14:11.334Z,5
2017-10-10T06:15:20.169Z,5
2017-10-10T06:16:29.004Z,5
2017-10-10T06:17:37.840Z,5
2017-10-10T06:18:46.675Z,5
2017-10-10T06:19:55.507Z,5
2017-10-10T06:21:04.350Z,5
2017-10-10T06:22:13.188Z,0
2017-10-10T06:23:22.017Z,5
2017-10-10T06:24:30.854Z,5
2017-10-10T06:25:39.686Z,0
2017-10-10T06:26:48.527Z,0
2017-10-10T06:27:57.365Z,0
2017-10-10T06:29:06.201Z,0
2017-10-10T06:30:15.034Z,0
2017-10-10T06:31:24.212Z,5
2017-10-10T06:32:33.054Z,5
2017-10-10T06:33:42.227Z,5
2017-10-10T06:34:51.064Z,5
2017-10-10T06:35:59.900Z,5
2017-10-10T06:37:08.733Z,5
2017-10-10T06:38:17.576Z,5
2017-10-10T06:39:26.747Z,5
2017-10-10T06:40:35.582Z,5
2017-10-10T06:41:44.425Z,5
2017-10-10T06:42:53.605Z,5
2017-10-10T06:44:02.437Z,5
2017-10-10T06:45:11.276Z,5
2017-10-10T06:46:20.112Z,5
2017-10-10T06:47:28.946Z,5
2017-10-10T06:48:37.786Z,5
2017-10-10T06:49:46.622Z,5
2017-10-10T06:50:55.799Z,5
2017-10-10T06:52:04.632Z,5
2017-10-10T06:53:13.466Z,5
2017-10-10T06:54:22.644Z,5
2017-10-10T06:55:31.479Z,5
2017-10-10T06:56:40.319Z,5
2017-10-10T06:57:49.155Z,5
2017-10-10T06:58:57.988Z,5
2017-10-10T07:00:06.827Z,5
2017-10-10T07:01:15.665Z,5
2017-10-10T07:02:24.501Z,5
2017-10-10T07:03:33.675Z,5
2017-10-10T07:04:42.509Z,5
2017-10-10T07:05:51.344Z,5
2017-10-10T07:07:00.185Z,5
2017-10-10T07:08:09.020Z,5
2017-10-10T07:09:17.856Z,10
2017-10-10T07:10:26.698Z,10
2017-10-10T07:11:35.531Z,10
2017-10-10T07:12:44.362Z,10
2017-10-10T07:13:53.200Z,10
2017-10-10T07:15:02.044Z,10
2017-10-10T07:16:10.883Z,10
2017-10-10T07:17:19.717Z,10
2017-10-10T07:18:28.551Z,10
2017-10-10T07:19:37.390Z,10
2017-10-10T07:20:46.229Z,15
2017-10-10T07:21:55.061Z,15
2017-10-10T07:23:03.927Z,15
2017-10-10T07:24:12.731Z,15
2017-10-10T07:25:21.570Z,15
2017-10-10T07:26:30.409Z,15
2017-10-10T07:27:39.246Z,15
2017-10-10T07:28:48.081Z,15
2017-10-10T07:29:56.916Z,15
2017-10-10T07:31:05.756Z,15
2017-10-10T07:32:14.589Z,15
2017-10-10T07:33:23.428Z,15
2017-10-10T07:34:32.261Z,10
2017-10-10T07:35:41.101Z,10
2017-10-10T07:36:49.934Z,10
2017-10-10T07:37:59.112Z,10
2017-10-10T07:39:07.943Z,10
2017-10-10T07:40:16.781Z,15
2017-10-10T07:41:25.615Z,15
2017-10-10T07:42:34.451Z,15
2017-10-10T07:43:43.286Z,15
2017-10-10T07:44:52.129Z,10
2017-10-10T07:46:00.959Z,10
2017-10-10T07:47:09.799Z,10
2017-10-10T07:48:18.629Z,10
2017-10-10T07:49:27.466Z,10
2017-10-10T07:50:36.302Z,10
2017-10-10T07:51:45.134Z,10
2017-10-10T07:52:53.964Z,10
2017-10-10T07:54:02.804Z,10
2017-10-10T07:55:11.980Z,10
2017-10-10T07:56:20.812Z,10
2017-10-10T07:57:29.649Z,10
2017-10-10T07:58:38.488Z,10
2017-10-10T07:59:47.318Z,10
2017-10-10T08:00:56.158Z,10
2017-10-10T08:02:04.990Z,10
2017-10-10T08:03:13.832Z,15
2017-10-10T08:04:22.670Z,15
2017-10-10T08:05:31.513Z,15
2017-10-10T08:06:40.351Z,20
2017-10-10T08:07:49.186Z,25
2017-10-10T08:08:58.021Z,25
2017-10-10T08:10:06.854Z,30
2017-10-10T08:11:15.694Z,30
2017-10-10T08:12:24.528Z,30
2017-10-10T08:13:33.364Z,30
2017-10-10T08:14:42.200Z,25
2017-10-10T08:15:51.038Z,25
2017-10-10T08:16:59.877Z,25
2017-10-10T08:18:08.713Z,25
2017-10-10T08:19:17.554Z,20
2017-10-10T08:20:26.388Z,25
2017-10-10T08:21:35.221Z,25
2017-10-10T08:22:44.060Z,25
2017-10-10T08:23:52.896Z,25
2017-10-10T08:25:01.733Z,20
2017-10-10T08:26:10.571Z,20
2017-10-10T08:27:19.405Z,20
2017-10-10T08:28:28.244Z,20
2017-10-10T08:29:37.085Z,25
2017-10-10T08:30:45.921Z,25
2017-10-10T08:31:55.107Z,20
2017-10-10T08:33:03.930Z,25
2017-10-10T08:34:12.774Z,20
2017-10-10T08:35:21.942Z,20
2017-10-10T08:36:30.779Z,25
2017-10-10T08:37:39.615Z,25
2017-10-10T08:38:48.450Z,20
2017-10-10T08:39:57.289Z,25
2017-10-10T08:41:06.119Z,40
2017-10-10T08:42:14.959Z,25
2017-10-10T08:43:23.791Z,20
2017-10-10T08:44:32.634Z,25
2017-10-10T08:45:41.465Z,20
2017-10-10T08:46:50.307Z,20
2017-10-10T08:47:59.144Z,15
2017-10-10T08:49:07.976Z,15
2017-10-10T08:50:16.817Z,15
2017-10-10T08:51:25.653Z,15
2017-10-10T08:52:34.487Z,15
2017-10-10T08:53:43.369Z,10
2017-10-10T08:54:52.161Z,10
2017-10-10T08:56:00.998Z,20
2017-10-10T08:57:09.835Z,20
2017-10-10T08:58:18.674Z,20
2017-10-10T08:59:27.524Z,20
2017-10-10T09:00:36.720Z,25
2017-10-10T09:01:45.553Z,25
2017-10-10T09:02:54.386Z,25
2017-10-10T09:04:03.231Z,30
2017-10-10T09:05:12.073Z,30
2017-10-10T09:06:20.909Z,45
2017-10-10T09:07:29.746Z,50
2017-10-10T09:08:38.580Z,40
2017-10-10T09:09:47.418Z,30
2017-10-10T09:10:56.590Z,25
2017-10-10T09:12:05.766Z,25
2017-10-10T09:13:14.592Z,20
2017-10-10T09:14:23.432Z,20
2017-10-10T09:15:32.603Z,20
2017-10-10T09:16:41.441Z,25
2017-10-10T09:17:50.285Z,30
2017-10-10T09:18:59.454Z,30
2017-10-10T09:20:08.289Z,35
2017-10-10T09:21:17.130Z,30
2017-10-10T09:22:25.966Z,25
2017-10-10T09:23:34.813Z,20
2017-10-10T09:24:43.642Z,25
2017-10-10T09:25:52.478Z,30
2017-10-10T09:27:01.318Z,25
2017-10-10T09:28:10.158Z,25
2017-10-10T09:29:18.994Z,20
2017-10-10T09:30:27.833Z,15
2017-10-10T09:31:36.668Z,10
2017-10-10T09:32:45.507Z,10
2017-10-10T09:33:54.351Z,10
2017-10-10T09:35:03.187Z,15
2017-10-10T09:36:12.018Z,20
2017-10-10T09:37:20.860Z,20
2017-10-10T09:38:29.691Z,20
2017-10-10T09:39:38.530Z,20
2017-10-10T09:40:47.363Z,25
2017-10-10T09:41:56.205Z,20
2017-10-10T09:43:05.045Z,20
2017-10-10T09:44:13.881Z,20
2017-10-10T09:45:22.724Z,20
2017-10-10T09:46:31.554Z,20
2017-10-10T09:47:40.391Z,20
2017-10-10T09:48:49.234Z,25
2017-10-10T09:49:58.065Z,25
2017-10-10T09:51:06.905Z,25
2017-10-10T09:52:15.743Z,20
2017-10-10T09:53:24.582Z,20
2017-10-10T09:54:33.423Z,25
2017-10-10T09:55:42.263Z,20
2017-10-10T09:56:51.101Z,20
2017-10-10T09:57:59.928Z,20
2017-10-10T09:59:08.764Z,20
2017-10-10T10:00:17.605Z,20
2017-10-10T10:01:26.442Z,15
2017-10-10T10:02:35.278Z,15
2017-10-10T10:03:44.112Z,20
2017-10-10T10:04:52.955Z,20
2017-10-10T10:06:01.789Z,25
2017-10-10T10:07:10.624Z,25
2017-10-10T10:08:19.456Z,25
2017-10-10T10:09:28.299Z,20
2017-10-10T10:10:37.135Z,20
2017-10-10T10:11:45.974Z,20
2017-10-10T10:12:54.815Z,15
2017-10-10T10:14:03.648Z,20
2017-10-10T10:15:12.487Z,15
2017-10-10T10:16:21.326Z,15
2017-10-10T10:17:30.161Z,15
2017-10-10T10:18:39.002Z,25
2017-10-10T10:19:47.844Z,30
2017-10-10T10:20:56.680Z,45
2017-10-10T10:22:05.519Z,35
2017-10-10T10:23:14.351Z,30
2017-10-10T10:24:23.190Z,30
2017-10-10T10:25:32.026Z,35
2017-10-10T10:26:40.863Z,25
2017-10-10T10:27:49.699Z,20
2017-10-10T10:28:58.536Z,25
2017-10-10T10:30:07.377Z,25
2017-10-10T10:31:16.216Z,30
2017-10-10T10:32:25.391Z,30
2017-10-10T10:33:34.225Z,25
2017-10-10T10:34:43.068Z,40
2017-10-10T10:35:51.900Z,30
2017-10-10T10:37:00.742Z,30
2017-10-10T10:38:09.578Z,25
2017-10-10T10:39:18.413Z,30
2017-10-10T10:40:27.249Z,40
2017-10-10T10:41:36.088Z,30
2017-10-10T10:42:44.928Z,40
2017-10-10T10:43:53.770Z,25
2017-10-10T10:45:02.941Z,20
2017-10-10T10:46:11.773Z,20
2017-10-10T10:47:20.612Z,30
2017-10-10T10:48:29.453Z,35
2017-10-10T10:49:38.289Z,30
2017-10-10T10:50:47.133Z,20
2017-10-10T10:51:55.964Z,20
2017-10-10T10:53:05.149Z,30
2017-10-10T10:54:13.981Z,25
2017-10-10T10:55:22.818Z,20
2017-10-10T10:56:31.659Z,20
2017-10-10T10:57:40.501Z,20
2017-10-10T10:58:49.340Z,25
2017-10-10T10:59:58.169Z,20
2017-10-10T11:01:07.014Z,20
2017-10-10T11:02:15.853Z,20
2017-10-10T11:03:24.683Z,20
2017-10-10T11:04:33.522Z,20
2017-10-10T11:05:42.357Z,15
2017-10-10T11:06:51.195Z,20
2017-10-10T11:08:00.036Z,25
2017-10-10T11:09:08.871Z,20
2017-10-10T11:10:17.710Z,25
2017-10-10T11:11:26.545Z,15
2017-10-10T11:12:35.383Z,15
2017-10-10T11:13:44.218Z,10
2017-10-10T11:14:53.063Z,10
2017-10-10T11:16:01.900Z,10
2017-10-10T11:17:10.736Z,20
2017-10-10T11:18:19.570Z,25
2017-10-10T11:19:28.411Z,35
2017-10-10T11:20:37.244Z,35
2017-10-10T11:21:46.095Z,30
2017-10-10T11:22:55.268Z,35
2017-10-10T11:24:04.107Z,20
2017-10-10T11:25:12.947Z,20
2017-10-10T11:26:21.784Z,25
2017-10-10T11:27:30.620Z,20
2017-10-10T11:28:39.460Z,20
2017-10-10T11:29:48.298Z,15
2017-10-10T11:30:57.131Z,30
2017-10-10T11:32:05.970Z,20
2017-10-10T11:33:14.816Z,20
2017-10-10T11:34:23.648Z,30
2017-10-10T11:35:32.486Z,20
2017-10-10T11:36:41.319Z,15
2017-10-10T11:37:50.162Z,15
2017-10-10T11:38:58.999Z,25
2017-10-10T11:40:07.843Z,25
2017-10-10T11:41:17.011Z,25
2017-10-10T11:42:25.853Z,15
2017-10-10T11:43:34.695Z,15
2017-10-10T11:44:43.532Z,20
2017-10-10T11:45:52.370Z,15
2017-10-10T11:47:01.212Z,20
2017-10-10T11:48:10.055Z,25
2017-10-10T11:49:18.885Z,25
2017-10-10T11:50:27.728Z,15
2017-10-10T11:51:36.564Z,15
2017-10-10T11:52:45.403Z,20
2017-10-10T11:53:54.573Z,15
2017-10-10T11:55:03.412Z,15
2017-10-10T11:56:12.251Z,15
2017-10-10T11:57:21.089Z,20
2017-10-10T11:58:29.926Z,15
2017-10-10T11:59:38.763Z,20
2017-10-10T12:00:47.602Z,20
2017-10-10T12:01:56.445Z,20
2017-10-10T12:03:05.284Z,20
2017-10-10T12:04:14.120Z,20
2017-10-10T12:05:22.952Z,15
2017-10-10T12:06:31.789Z,15
2017-10-10T12:07:40.627Z,10
2017-10-10T12:08:49.470Z,15
2017-10-10T12:09:58.304Z,10
2017-10-10T12:11:07.143Z,10
2017-10-10T12:12:15.982Z,10
2017-10-10T12:13:24.816Z,10
2017-10-10T12:14:33.656Z,10
2017-10-10T12:15:42.494Z,15
2017-10-10T12:16:51.337Z,10
2017-10-10T12:18:00.175Z,10
2017-10-10T12:19:09.012Z,10
2017-10-10T12:20:17.849Z,10
2017-10-10T12:21:26.684Z,10
2017-10-10T12:22:35.524Z,10
2017-10-10T12:23:44.361Z,10
2017-10-10T12:24:53.207Z,10
2017-10-10T12:26:02.042Z,10
2017-10-10T12:27:10.875Z,5
2017-10-10T12:28:19.714Z,5
2017-10-10T12:29:28.554Z,10
2017-10-10T12:30:37.391Z,15
2017-10-10T12:31:46.224Z,10
2017-10-10T12:32:55.068Z,15
2017-10-10T12:34:03.899Z,20
2017-10-10T12:35:12.744Z,15
2017-10-10T12:36:21.581Z,20
2017-10-10T12:37:30.419Z,15
2017-10-10T12:38:39.253Z,10
2017-10-10T12:39:48.095Z,10
2017-10-10T12:40:56.928Z,10
2017-10-10T12:42:05.770Z,10
2017-10-10T12:43:14.613Z,15
2017-10-10T12:44:23.448Z,20
2017-10-10T12:45:32.288Z,20
2017-10-10T12:46:41.127Z,15
2017-10-10T12:47:49.966Z,15
2017-10-10T12:48:58.801Z,10
2017-10-10T12:50:07.640Z,10
2017-10-10T12:51:16.816Z,15
2017-10-10T12:52:25.652Z,15
2017-10-10T12:53:34.490Z,15
2017-10-10T12:54:43.326Z,10
2017-10-10T12:55:52.167Z,10
2017-10-10T12:57:01.001Z,10
2017-10-10T12:58:09.843Z,15
2017-10-10T12:59:18.683Z,15
2017-10-10T13:00:27.515Z,15
2017-10-10T13:01:36.357Z,15
2017-10-10T13:02:45.191Z,15
2017-10-10T13:03:54.036Z,15
2017-10-10T13:05:02.870Z,15
2017-10-10T13:06:11.705Z,15
2017-10-10T13:07:20.547Z,15
2017-10-10T13:08:29.388Z,20
2017-10-10T13:09:38.228Z,20
2017-10-10T13:10:47.066Z,20
2017-10-10T13:11:55.904Z,20
2017-10-10T13:13:04.743Z,25
2017-10-10T13:14:13.581Z,25
2017-10-10T13:15:22.414Z,20
2017-10-10T13:16:31.591Z,20
2017-10-10T13:17:40.429Z,20
2017-10-10T13:18:49.273Z,20
2017-10-10T13:19:58.110Z,15
2017-10-10T13:21:06.946Z,20
2017-10-10T13:22:15.784Z,20
2017-10-10T13:23:24.625Z,20
2017-10-10T13:24:33.462Z,15
2017-10-10T13:25:42.302Z,15
2017-10-10T13:26:51.144Z,15
2017-10-10T13:27:59.977Z,15
2017-10-10T13:29:08.812Z,15
2017-10-10T13:30:17.653Z,15
2017-10-10T13:31:26.489Z,10
2017-10-10T13:32:35.331Z,10
2017-10-10T13:33:44.168Z,10
2017-10-10T13:34:53.005Z,10
2017-10-10T13:36:01.835Z,10
2017-10-10T13:37:10.681Z,10
2017-10-10T13:38:19.529Z,10
2017-10-10T13:39:28.365Z,5
2017-10-10T13:40:37.203Z,10
2017-10-10T13:41:46.036Z,5
2017-10-10T13:42:54.878Z,5
2017-10-10T13:44:03.714Z,5
2017-10-10T13:45:12.554Z,5
2017-10-10T13:46:21.396Z,5
2017-10-10T13:47:30.238Z,5
2017-10-10T13:48:39.077Z,5
2017-10-10T13:49:47.917Z,5
2017-10-10T13:50:56.773Z,5
2017-10-10T13:52:05.928Z,5
2017-10-10T13:53:15.124Z,5
2017-10-10T13:54:23.941Z,5
2017-10-10T13:55:32.784Z,5
2017-10-10T13:56:41.619Z,5
2017-10-10T13:57:50.456Z,5
2017-10-10T13:58:59.296Z,5
2017-10-10T14:00:08.132Z,5
2017-10-10T14:01:16.972Z,5
2017-10-10T14:02:25.810Z,0
2017-10-10T14:03:34.648Z,5
2017-10-10T14:04:43.484Z,5
2017-10-10T14:05:52.327Z,5
2017-10-10T14:07:01.170Z,5
2017-10-10T14:08:10.009Z,5
2017-10-10T14:09:18.845Z,5
2017-10-10T14:10:27.677Z,5
2017-10-10T14:11:36.517Z,5
2017-10-10T14:12:45.360Z,5
2017-10-10T14:13:54.196Z,0
2017-10-10T14:15:03.033Z,0
2017-10-10T14:16:11.872Z,0
2017-10-10T14:17:20.704Z,5
2017-10-10T14:18:29.887Z,5
2017-10-10T14:19:38.734Z,5
2017-10-10T14:20:47.918Z,5
2017-10-10T14:21:56.753Z,0
2017-10-10T14:23:05.591Z,0
2017-10-10T14:24:14.430Z,5
2017-10-10T14:25:23.266Z,5
2017-10-10T14:26:32.109Z,0
2017-10-10T14:27:40.950Z,5
2017-10-10T14:28:49.784Z,5
2017-10-10T14:29:58.628Z,5
2017-10-10T14:31:07.467Z,5
2017-10-10T14:32:16.311Z,5
2017-10-10T14:33:25.154Z,5
2017-10-10T14:34:33.991Z,5
2017-10-10T14:35:42.825Z,5
2017-10-10T14:36:51.678Z,10
2017-10-10T14:38:00.501Z,10
2017-10-10T14:39:09.341Z,5
2017-10-10T14:40:18.182Z,5
2017-10-10T14:41:27.017Z,5
2017-10-10T14:42:35.851Z,5
2017-10-10T14:43:44.698Z,5
2017-10-10T14:44:53.870Z,5
2017-10-10T14:46:02.710Z,5
2017-10-10T14:47:11.546Z,5
2017-10-10T14:48:20.388Z,5
2017-10-10T14:49:29.221Z,5
2017-10-10T14:50:38.065Z,5
2017-10-10T14:51:46.901Z,5
2017-10-10T14:52:55.742Z,5
2017-10-10T14:54:04.578Z,5
2017-10-10T14:55:13.412Z,5
2017-10-10T14:56:22.248Z,10
2017-10-10T14:57:31.093Z,10
2017-10-10T14:58:39.935Z,10
2017-10-10T14:59:48.769Z,5
2017-10-10T15:00:57.609Z,10
2017-10-10T15:02:06.448Z,10
2017-10-10T15:03:15.286Z,15
2017-10-10T15:04:24.127Z,10
2017-10-10T15:05:33.299Z,15
2017-10-10T15:06:42.137Z,20
2017-10-10T15:07:50.975Z,10
2017-10-10T15:08:59.815Z,15
2017-10-10T15:10:08.653Z,10
2017-10-10T15:11:17.491Z,15
2017-10-10T15:12:26.331Z,10
2017-10-10T15:13:35.173Z,10
2017-10-10T15:14:44.008Z,10
2017-10-10T15:15:52.848Z,10
2017-10-10T15:17:01.684Z,5
2017-10-10T15:18:10.524Z,10
2017-10-10T15:19:19.363Z,5
2017-10-10T15:20:28.201Z,5
2017-10-10T15:21:37.037Z,5
2017-10-10T15:22:45.882Z,5
2017-10-10T15:23:54.727Z,5
2017-10-10T15:25:03.562Z,5
2017-10-10T15:26:12.402Z,5
2017-10-10T15:27:21.241Z,5
2017-10-10T15:28:30.082Z,5
2017-10-10T15:29:38.916Z,0
2017-10-10T15:30:47.759Z,0
2017-10-10T15:31:56.603Z,0
2017-10-10T15:33:05.769Z,0
2017-10-10T15:34:14.611Z,0
2017-10-10T15:35:23.453Z,0
2017-10-10T15:36:32.290Z,0
2017-10-10T15:37:41.129Z,0
2017-10-10T15:38:49.970Z,0
2017-10-10T15:39:58.805Z,5
2017-10-10T15:41:07.646Z,0
2017-10-10T15:42:16.489Z,0
2017-10-10T15:43:25.325Z,0
2017-10-10T15:44:34.165Z,0
2017-10-10T15:45:43.000Z,0
2017-10-10T15:46:51.837Z,0
2017-10-10T15:48:00.679Z,0
2017-10-10T15:49:09.517Z,0
2017-10-10T15:50:18.354Z,0
2017-10-10T15:51:27.193Z,0
2017-10-10T15:52:36.032Z,0
2017-10-10T15:53:44.865Z,0
2017-10-10T15:54:54.602Z,0
2017-10-10T15:56:02.546Z,0
2017-10-10T15:57:11.381Z,0
2017-10-10T15:58:20.561Z,0
2017-10-10T15:59:29.398Z,0
2017-10-10T16:00:38.239Z,0
2017-10-10T16:01:47.075Z,0
2017-10-10T16:02:55.914Z,0
2017-10-10T16:04:04.755Z,0
2017-10-10T16:05:13.590Z,0
2017-10-10T16:06:22.436Z,0
2017-10-10T16:07:31.614Z,0
2017-10-10T16:08:40.454Z,0
2017-10-10T16:09:49.293Z,0
2017-10-10T16:10:58.132Z,0
2017-10-10T16:12:07.303Z,0
2017-10-10T16:13:16.147Z,0
2017-10-10T16:14:24.985Z,0
2017-10-10T16:15:33.832Z,0
2017-10-10T16:16:42.668Z,0
2017-10-10T16:17:51.511Z,0
2017-10-10T16:19:00.350Z,0
2017-10-10T16:20:09.191Z,0
2017-10-10T16:21:18.026Z,0
2017-10-10T16:22:26.864Z,0
2017-10-10T16:23:35.706Z,0
2017-10-10T16:24:44.541Z,0
2017-10-10T16:25:53.379Z,0
2017-10-10T16:27:02.218Z,0
2017-10-10T16:28:11.055Z,0
2017-10-10T16:29:19.895Z,0
2017-10-10T16:30:28.732Z,0
2017-10-10T16:31:37.567Z,0
2017-10-10T16:32:46.410Z,0
2017-10-10T16:33:55.246Z,0
2017-10-10T16:35:04.084Z,0
2017-10-10T16:36:12.925Z,0
2017-10-10T16:37:21.765Z,0
2017-10-10T16:38:30.601Z,0
2017-10-10T16:39:39.442Z,0
2017-10-10T16:40:48.279Z,0
2017-10-10T16:41:57.461Z,0
2017-10-10T16:43:06.300Z,0